createdAt,value
2023-05-07T00:00:32.123Z,9.57
2023-05-07T00:05:33.662Z,7.35
2023-05-07T00:10:35.192Z,9.38
2023-05-07T00:15:36.678Z,10.48
2023-05-07T00:20:38.173Z,14.05
2023-05-07T00:25:39.665Z,11.93
2023-05-07T00:30:41.188Z,9.90
2023-05-07T00:35:44.387Z,10.50
2023-05-07T00:40:46.353Z,12.98
2023-05-07T00:45:48.230Z,10.50
2023-05-07T00:50:49.826Z,13.20
2023-05-07T00:55:51.625Z,15.02
2023-05-07T01:00:53.216Z,10.65
2023-05-07T01:05:56.773Z,8.05
2023-05-07T01:10:59.771Z,8.98
2023-05-07T01:16:06.094Z,10.23
2023-05-07T01:21:11.832Z,9.18
2023-05-07T01:26:13.457Z,10.52
2023-05-07T01:31:17.884Z,9.00
2023-05-07T01:36:21.988Z,9.93
2023-05-07T01:41:23.533Z,8.88
2023-05-07T01:46:27.131Z,11.27
2023-05-07T01:51:28.681Z,10.10
2023-05-07T01:56:31.405Z,7.45
2023-05-07T02:01:33.353Z,8.10
2023-05-07T02:06:34.948Z,9.98
2023-05-07T02:11:39.938Z,5.97
2023-05-07T02:16:41.549Z,9.27
2023-05-07T02:21:45.687Z,9.52
2023-05-07T02:26:47.239Z,7.53
2023-05-07T02:31:53.889Z,8.90
2023-05-07T02:36:56.603Z,8.52
2023-05-07T02:42:01.049Z,10.70
2023-05-07T02:47:02.662Z,7.57
2023-05-07T02:52:04.755Z,7.55
2023-05-07T02:57:06.370Z,6.82
2023-05-07T03:02:07.969Z,9.75
2023-05-07T03:07:09.553Z,7.18
2023-05-07T03:12:11.125Z,10.80
2023-05-07T03:17:12.875Z,7.63
2023-05-07T03:22:14.907Z,7.20
2023-05-07T03:27:16.740Z,6.32
2023-05-07T03:32:18.845Z,9.05
2023-05-07T03:37:20.858Z,7.75
2023-05-07T03:42:22.418Z,4.85
2023-05-07T03:47:26.664Z,5.50
2023-05-07T03:52:28.402Z,8.85
2023-05-07T03:57:33.098Z,7.57
2023-05-07T04:02:35.244Z,7.85
2023-05-07T04:07:38.215Z,6.28
2023-05-07T04:12:39.905Z,7.65
2023-05-07T04:17:43.326Z,8.00
2023-05-07T04:22:46.218Z,8.05
2023-05-07T04:27:48.365Z,7.13
2023-05-07T04:32:51.419Z,7.35
2023-05-07T04:37:53.197Z,9.57
2023-05-07T04:42:54.822Z,7.90
2023-05-07T04:47:57.182Z,8.63
2023-05-07T04:52:59.027Z,7.15
2023-05-07T04:58:02.466Z,9.48
2023-05-07T05:03:07.882Z,8.63
2023-05-07T05:08:10.056Z,7.78
2023-05-07T05:13:14.493Z,7.70
2023-05-07T05:18:17.211Z,6.78
2023-05-07T05:23:18.765Z,8.00
2023-05-07T05:28:20.466Z,12.18
2023-05-07T05:33:22.191Z,9.57
2023-05-07T05:57:11.363Z,6.95
2023-05-07T06:02:13.628Z,6.57
2023-05-07T06:07:16.343Z,8.20
2023-05-07T06:12:18.075Z,5.95
2023-05-07T06:17:21.594Z,8.65
2023-05-07T06:22:25.429Z,6.57
2023-05-07T06:27:27.072Z,7.47
2023-05-07T06:32:29.184Z,5.82
2023-05-07T06:37:31.052Z,9.68
2023-05-07T06:42:38.943Z,6.65
2023-05-07T06:48:03.641Z,6.97
2023-05-07T06:53:09.351Z,5.32
2023-05-07T06:58:10.996Z,6.65
2023-05-07T07:03:13.403Z,6.20
2023-05-07T07:08:18.023Z,7.35
2023-05-07T07:13:20.586Z,7.20
2023-05-07T07:18:22.569Z,8.05
2023-05-07T07:23:25.955Z,5.90
2023-05-07T07:28:27.722Z,5.53
2023-05-07T07:33:29.586Z,4.70
2023-05-07T07:38:32.182Z,7.40
2023-05-07T07:43:33.837Z,6.43
2023-05-07T07:48:35.736Z,5.57
2023-05-07T07:53:37.274Z,8.63
2023-05-07T07:58:40.125Z,7.30
2023-05-07T08:03:41.961Z,5.68
2023-05-07T08:08:44.041Z,5.35
2023-05-07T08:13:46.774Z,5.85
2023-05-07T08:18:48.335Z,6.78
2023-05-07T08:23:50.239Z,6.63
2023-05-07T08:28:52.340Z,9.43
2023-05-07T08:33:53.952Z,8.02
2023-05-07T08:38:55.877Z,6.93
2023-05-07T08:43:59.889Z,11.90
2023-05-07T08:49:01.991Z,6.30
2023-05-07T08:54:04.020Z,5.60
2023-05-07T08:59:08.776Z,6.72
2023-05-07T09:04:10.828Z,8.55
2023-05-07T09:09:18.350Z,5.18
2023-05-07T09:14:22.804Z,8.77
2023-05-07T09:19:25.997Z,8.10
2023-05-07T09:24:35.869Z,6.38
2023-05-07T09:29:39.142Z,6.95
2023-05-07T09:34:43.055Z,6.90
2023-05-07T09:39:47.404Z,6.00
2023-05-07T09:44:51.773Z,9.18
2023-05-07T09:49:58.901Z,6.07
2023-05-07T09:55:01.635Z,5.20
2023-05-07T10:00:06.327Z,7.00
2023-05-07T10:05:26.135Z,5.97
2023-05-07T10:10:33.492Z,6.72
2023-05-07T10:15:35.892Z,5.70
2023-05-07T10:20:40.145Z,4.82
2023-05-07T10:25:44.393Z,6.72
2023-05-07T10:31:24.477Z,6.18
2023-05-07T10:36:27.349Z,8.93
2023-05-07T10:41:29.230Z,7.53
2023-05-07T10:46:34.204Z,5.63
2023-05-07T10:51:42.820Z,7.05
2023-05-07T10:56:56.445Z,6.13
2023-05-07T11:02:05.186Z,6.53
2023-05-07T11:07:29.259Z,9.13
2023-05-07T11:12:39.466Z,7.13
2023-05-07T11:18:00.613Z,9.30
2023-05-07T11:23:07.753Z,11.57
2023-05-07T11:28:14.919Z,6.35
2023-05-07T11:33:24.052Z,7.53
2023-05-07T11:38:28.654Z,8.05
2023-05-07T11:43:30.285Z,8.63
2023-05-07T11:48:32.705Z,6.43
2023-05-07T11:53:39.217Z,7.57
2023-05-07T11:58:42.351Z,6.97
2023-05-07T12:03:46.908Z,7.28
2023-05-07T12:08:48.770Z,7.97
2023-05-07T12:13:51.549Z,7.32
2023-05-07T12:18:55.853Z,7.40
2023-05-07T12:23:57.555Z,7.80
2023-05-07T12:28:59.271Z,8.55
2023-05-07T12:34:00.972Z,8.00
2023-05-07T12:39:02.745Z,8.82
2023-05-07T12:44:06.016Z,6.15
2023-05-07T12:49:07.531Z,5.43
2023-05-07T12:54:09.047Z,6.65
2023-05-07T12:59:10.778Z,8.52
2023-05-07T13:04:12.390Z,6.30
2023-05-07T13:09:13.886Z,8.85
2023-05-07T13:14:15.976Z,6.95
2023-05-07T13:19:18.381Z,6.03
2023-05-07T13:24:20.032Z,7.72
2023-05-07T13:29:26.403Z,5.82
2023-05-07T13:34:29.076Z,7.22
2023-05-07T13:39:30.829Z,6.10
2023-05-07T13:44:32.335Z,7.45
2023-05-07T13:49:33.835Z,5.55
2023-05-07T13:54:35.319Z,6.95
2023-05-07T13:59:36.774Z,5.68
2023-05-07T14:04:38.799Z,7.63
2023-05-07T14:09:40.461Z,6.05
2023-05-07T14:14:41.988Z,5.82
2023-05-07T14:19:43.892Z,5.57
2023-05-07T14:24:46.867Z,5.35
2023-05-07T14:29:52.166Z,5.75
2023-05-07T14:34:53.791Z,6.07
2023-05-07T14:39:55.333Z,5.40
2023-05-07T14:44:56.868Z,5.57
2023-05-07T14:49:59.296Z,5.47
2023-05-07T14:55:01.176Z,6.38
2023-05-07T15:00:05.644Z,4.97
2023-05-07T15:05:07.532Z,5.90
2023-05-07T15:10:09.443Z,4.70
2023-05-07T15:15:11.578Z,6.47
2023-05-07T15:20:13.352Z,5.18
2023-05-07T15:25:15.207Z,5.50
2023-05-07T15:30:17.055Z,6.53
2023-05-07T15:35:22.619Z,5.53
2023-05-07T15:50:27.634Z,6.27
2023-05-07T15:55:29.171Z,6.22
2023-05-07T16:00:30.763Z,5.65
2023-05-07T16:05:32.238Z,6.05
2023-05-07T16:10:33.716Z,4.80
2023-05-07T16:15:35.880Z,5.88
2023-05-07T16:20:37.772Z,5.93
2023-05-07T16:25:39.316Z,5.95
2023-05-07T16:30:40.857Z,5.35
2023-05-07T16:40:45.574Z,6.82
2023-05-07T16:50:48.707Z,6.38
2023-05-07T16:55:50.358Z,6.10
2023-05-07T17:00:51.858Z,5.60
2023-05-07T17:05:53.406Z,11.35
2023-05-07T17:10:55.033Z,5.22
2023-05-07T17:15:56.637Z,6.40
2023-05-07T17:20:58.137Z,5.75
2023-05-07T17:25:59.623Z,5.30
2023-05-07T17:31:01.399Z,4.97
2023-05-07T17:36:03.206Z,6.47
2023-05-07T17:41:04.762Z,4.68
2023-05-07T17:46:08.646Z,6.90
2023-05-07T17:51:10.220Z,5.63
2023-05-07T17:56:12.030Z,4.78
2023-05-07T18:01:14.030Z,5.53
2023-05-07T18:06:18.895Z,5.28
2023-05-07T18:11:21.832Z,3.78
2023-05-07T18:16:23.397Z,6.18
2023-05-07T18:21:25.037Z,3.80
2023-05-07T18:26:26.574Z,5.18
2023-05-07T18:31:28.079Z,4.95
2023-05-07T18:36:29.617Z,5.07
2023-05-07T18:41:31.342Z,3.88
2023-05-07T18:46:33.042Z,4.50
2023-05-07T18:51:34.585Z,5.30
2023-05-07T18:56:36.061Z,7.88
2023-05-07T19:01:37.599Z,5.22
2023-05-07T19:06:39.238Z,4.97
2023-05-07T19:11:40.723Z,4.13
2023-05-07T19:16:42.321Z,3.42
2023-05-07T19:21:43.841Z,6.43
2023-05-07T19:26:45.406Z,5.57
2023-05-07T19:31:46.980Z,4.68
2023-05-07T19:36:48.535Z,4.80
2023-05-07T19:41:50.557Z,4.88
2023-05-07T19:46:52.677Z,8.60
2023-05-07T19:51:54.387Z,5.25
2023-05-07T19:56:56.636Z,4.30
2023-05-07T20:01:58.245Z,5.20
2023-05-07T20:07:00.036Z,4.05
2023-05-07T20:12:01.787Z,4.35
2023-05-07T20:17:03.253Z,4.45
2023-05-07T20:22:04.790Z,5.30
2023-05-07T20:27:06.454Z,2.88
2023-05-07T20:32:08.019Z,4.10
2023-05-07T20:37:14.095Z,3.95
2023-05-07T20:42:15.697Z,4.70
2023-05-07T20:47:17.479Z,4.43
2023-05-07T20:52:19.404Z,2.78
2023-05-07T20:57:20.916Z,5.40
2023-05-07T21:02:22.419Z,3.80
2023-05-07T21:07:24.011Z,3.17
2023-05-07T21:12:25.717Z,3.85
2023-05-07T21:17:28.921Z,4.85
2023-05-07T21:22:30.657Z,4.00
2023-05-07T21:27:32.282Z,4.40
2023-05-07T21:32:34.158Z,4.47
2023-05-07T21:37:35.701Z,3.33
2023-05-07T21:42:37.213Z,4.55
2023-05-07T21:47:38.832Z,4.10
2023-05-07T21:52:40.300Z,3.95
2023-05-07T21:57:47.981Z,7.95
2023-05-07T22:02:56.073Z,3.28
2023-05-07T22:07:57.694Z,2.55
2023-05-07T22:12:59.221Z,6.28
2023-05-07T22:18:00.926Z,4.40
2023-05-07T22:23:02.399Z,4.00
2023-05-07T22:28:04.056Z,3.78
2023-05-07T22:33:06.186Z,4.40
2023-05-07T22:38:07.757Z,3.80
2023-05-07T22:43:09.335Z,3.40
2023-05-07T22:48:10.959Z,4.68
2023-05-07T22:53:12.494Z,4.85
2023-05-07T22:58:14.153Z,4.95
2023-05-07T23:03:15.815Z,4.32
2023-05-07T23:08:17.471Z,5.35
2023-05-07T23:13:19.046Z,4.43
2023-05-07T23:18:20.640Z,4.22
2023-05-07T23:23:22.180Z,3.95
2023-05-07T23:28:23.855Z,5.95
2023-05-07T23:33:25.461Z,3.92
2023-05-07T23:38:27.218Z,5.10
2023-05-07T23:43:29.406Z,4.70
2023-05-07T23:48:31.271Z,3.75
2023-05-07T23:53:32.764Z,3.50
2023-05-07T23:58:34.253Z,3.15
